createdAt,value
2018-10-18T00:00:40.239Z,0
2018-10-18T00:01:48.880Z,0
2018-10-18T00:02:57.793Z,0
2018-10-18T00:04:06.440Z,0
2018-10-18T00:05:15.077Z,0
2018-10-18T00:06:23.723Z,0
2018-10-18T00:07:32.362Z,0
2018-10-18T00:08:41.010Z,0
2018-10-18T00:09:49.652Z,0
2018-10-18T00:10:58.557Z,0
2018-10-18T00:12:07.969Z,0
2018-10-18T00:13:16.529Z,0
2018-10-18T00:14:25.582Z,0
2018-10-18T00:15:34.218Z,0
2018-10-18T00:16:42.861Z,0
2018-10-18T00:17:51.768Z,0
2018-10-18T00:19:00.675Z,0
2018-10-18T00:20:09.417Z,0
2018-10-18T00:21:18.227Z,0
2018-10-18T00:22:26.874Z,0
2018-10-18T00:23:35.511Z,0
2018-10-18T00:24:44.430Z,0
2018-10-18T00:25:53.097Z,0
2018-10-18T00:27:01.722Z,0
2018-10-18T00:28:10.626Z,0
2018-10-18T00:29:19.533Z,0
2018-10-18T00:30:28.173Z,0
2018-10-18T00:31:36.814Z,0
2018-10-18T00:32:45.462Z,0
2018-10-18T00:33:54.106Z,0
2018-10-18T00:35:03.016Z,0
2018-10-18T00:36:12.125Z,0
2018-10-18T00:37:20.706Z,0
2018-10-18T00:38:29.345Z,0
2018-10-18T00:39:37.987Z,0
2018-10-18T00:40:46.627Z,0
2018-10-18T00:41:55.344Z,0
2018-10-18T00:43:03.915Z,0
2018-10-18T00:44:12.618Z,0
2018-10-18T00:45:21.197Z,0
2018-10-18T00:46:29.843Z,0
2018-10-18T00:47:38.489Z,0
2018-10-18T00:48:47.393Z,0
2018-10-18T00:49:56.045Z,0
2018-10-18T00:51:04.950Z,0
2018-10-18T00:52:13.592Z,0
2018-10-18T00:53:22.238Z,0
2018-10-18T00:54:30.887Z,0
2018-10-18T00:55:39.524Z,0
2018-10-18T00:56:48.166Z,0
2018-10-18T00:57:56.811Z,0
2018-10-18T00:59:05.457Z,0
2018-10-18T01:00:14.196Z,0
2018-10-18T01:01:23.185Z,0
2018-10-18T01:02:31.822Z,0
2018-10-18T01:03:40.471Z,0
2018-10-18T01:04:49.111Z,0
2018-10-18T01:05:58.400Z,0
2018-10-18T01:07:06.993Z,0
2018-10-18T01:08:15.794Z,0
2018-10-18T01:09:24.293Z,0
2018-10-18T01:10:32.928Z,0
2018-10-18T01:11:41.571Z,0
2018-10-18T01:12:50.655Z,0
2018-10-18T01:13:59.311Z,0
2018-10-18T01:15:07.956Z,0
2018-10-18T01:16:16.599Z,0
2018-10-18T01:17:25.235Z,0
2018-10-18T01:18:33.889Z,0
2018-10-18T01:19:42.801Z,0
2018-10-18T01:20:51.704Z,0
2018-10-18T01:22:00.341Z,0
2018-10-18T01:23:08.989Z,0
2018-10-18T01:24:18.418Z,0
2018-10-18T01:25:27.329Z,0
2018-10-18T01:26:36.235Z,0
2018-10-18T01:27:44.871Z,0
2018-10-18T01:28:53.788Z,0
2018-10-18T01:30:02.765Z,0
2018-10-18T01:31:11.384Z,0
2018-10-18T01:32:20.518Z,0
2018-10-18T01:33:29.167Z,0
2018-10-18T01:34:37.810Z,0
2018-10-18T01:35:46.987Z,0
2018-10-18T01:36:55.887Z,0
2018-10-18T01:38:04.613Z,0
2018-10-18T01:39:13.177Z,0
2018-10-18T01:40:22.091Z,0
2018-10-18T01:41:30.737Z,0
2018-10-18T01:42:39.379Z,0
2018-10-18T01:43:48.023Z,0
2018-10-18T01:44:56.663Z,0
2018-10-18T01:46:05.581Z,0
2018-10-18T01:47:14.216Z,0
2018-10-18T01:48:23.325Z,0
2018-10-18T01:49:31.956Z,0
2018-10-18T01:50:40.886Z,0
2018-10-18T01:51:49.519Z,0
2018-10-18T01:52:58.166Z,0
2018-10-18T01:54:06.898Z,0
2018-10-18T01:55:15.453Z,0
2018-10-18T01:56:24.092Z,0
2018-10-18T01:57:33.003Z,0
2018-10-18T01:58:41.638Z,0
2018-10-18T01:59:50.285Z,0
2018-10-18T02:00:58.930Z,0
2018-10-18T02:02:07.691Z,0
2018-10-18T02:03:16.497Z,0
2018-10-18T02:04:25.131Z,0
2018-10-18T02:05:33.779Z,0
2018-10-18T02:06:42.683Z,0
2018-10-18T02:07:51.334Z,0
2018-10-18T02:08:59.967Z,0
2018-10-18T02:10:08.621Z,0
2018-10-18T02:11:17.260Z,0
2018-10-18T02:12:26.176Z,0
2018-10-18T02:13:34.817Z,0
2018-10-18T02:14:43.776Z,0
2018-10-18T02:15:52.423Z,0
2018-10-18T02:17:01.074Z,0
2018-10-18T02:18:10.074Z,0
2018-10-18T02:19:18.727Z,0
2018-10-18T02:20:27.545Z,0
2018-10-18T02:21:36.185Z,0
2018-10-18T02:22:44.840Z,0
2018-10-18T02:23:53.540Z,0
2018-10-18T02:25:02.434Z,0
2018-10-18T02:26:11.042Z,0
2018-10-18T02:27:19.698Z,0
2018-10-18T02:28:28.591Z,0
2018-10-18T02:29:37.248Z,0
2018-10-18T02:30:45.885Z,0
2018-10-18T02:31:54.536Z,0
2018-10-18T02:33:03.447Z,0
2018-10-18T02:34:12.370Z,0
2018-10-18T02:35:21.292Z,0
2018-10-18T02:36:29.940Z,0
2018-10-18T02:37:38.589Z,0
2018-10-18T02:38:47.498Z,0
2018-10-18T02:39:56.147Z,0
2018-10-18T02:41:05.303Z,0
2018-10-18T02:42:14.043Z,0
2018-10-18T02:43:22.595Z,0
2018-10-18T02:44:31.252Z,0
2018-10-18T02:45:39.892Z,0
2018-10-18T02:46:48.541Z,0
2018-10-18T02:47:57.543Z,0
2018-10-18T02:49:06.145Z,0
2018-10-18T02:50:15.045Z,0
2018-10-18T02:51:23.692Z,0
2018-10-18T02:52:32.337Z,0
2018-10-18T02:53:40.997Z,0
2018-10-18T02:54:49.637Z,0
2018-10-18T02:55:58.535Z,0
2018-10-18T02:57:07.181Z,0
2018-10-18T02:58:15.830Z,0
2018-10-18T02:59:24.746Z,0
2018-10-18T03:00:33.383Z,0
2018-10-18T03:01:42.034Z,0
2018-10-18T03:02:50.669Z,0
2018-10-18T03:03:59.326Z,0
2018-10-18T03:05:07.965Z,0
2018-10-18T03:06:16.694Z,0
2018-10-18T03:07:25.627Z,0
2018-10-18T03:08:34.280Z,0
2018-10-18T03:09:43.192Z,0
2018-10-18T03:10:52.101Z,0
2018-10-18T03:12:00.825Z,0
2018-10-18T03:13:09.382Z,0
2018-10-18T03:14:18.034Z,0
2018-10-18T03:15:26.680Z,0
2018-10-18T03:16:35.330Z,0
2018-10-18T03:17:44.231Z,0
2018-10-18T03:18:52.875Z,0
2018-10-18T03:20:01.518Z,0
2018-10-18T03:21:10.167Z,0
2018-10-18T03:22:19.072Z,0
2018-10-18T03:23:27.716Z,0
2018-10-18T03:24:36.362Z,0
2018-10-18T03:25:45.014Z,0
2018-10-18T03:26:53.959Z,0
2018-10-18T03:28:03.405Z,0
2018-10-18T03:29:12.049Z,0
2018-10-18T03:30:21.154Z,0
2018-10-18T03:31:29.748Z,0
2018-10-18T03:32:38.690Z,0
2018-10-18T03:33:47.325Z,0
2018-10-18T03:34:55.964Z,0
2018-10-18T03:36:05.048Z,0
2018-10-18T03:37:13.619Z,0
2018-10-18T03:38:22.267Z,0
2018-10-18T03:39:31.183Z,0
2018-10-18T03:40:39.837Z,0
2018-10-18T03:41:48.480Z,0
2018-10-18T03:42:57.125Z,0
2018-10-18T03:44:06.040Z,0
2018-10-18T03:45:14.959Z,0
2018-10-18T03:46:23.601Z,0
2018-10-18T03:47:32.247Z,0
2018-10-18T03:48:41.156Z,0
2018-10-18T03:49:49.801Z,0
2018-10-18T03:50:58.443Z,0
2018-10-18T03:52:07.354Z,0
2018-10-18T03:53:16.002Z,0
2018-10-18T03:54:24.641Z,0
2018-10-18T03:55:33.285Z,0
2018-10-18T03:56:42.190Z,0
2018-10-18T03:57:51.102Z,0
2018-10-18T03:58:59.741Z,0
2018-10-18T04:00:08.838Z,0
2018-10-18T04:01:17.393Z,0
2018-10-18T04:02:26.065Z,0
2018-10-18T04:03:34.970Z,0
2018-10-18T04:04:43.613Z,0
2018-10-18T04:05:52.258Z,0
2018-10-18T04:07:00.899Z,0
2018-10-18T04:08:09.806Z,0
2018-10-18T04:09:18.451Z,0
2018-10-18T04:10:27.097Z,0
2018-10-18T04:11:35.741Z,0
2018-10-18T04:12:44.461Z,0
2018-10-18T04:13:53.455Z,0
2018-10-18T04:15:02.362Z,0
2018-10-18T04:16:11.015Z,0
2018-10-18T04:17:19.918Z,0
2018-10-18T04:18:28.613Z,0
2018-10-18T04:19:37.204Z,0
2018-10-18T04:20:45.853Z,0
2018-10-18T04:21:54.494Z,0
2018-10-18T04:23:03.431Z,0
2018-10-18T04:24:12.154Z,0
2018-10-18T04:25:20.767Z,0
2018-10-18T04:26:29.363Z,0
2018-10-18T04:27:38.011Z,0
2018-10-18T04:28:46.916Z,0
2018-10-18T04:29:55.567Z,0
2018-10-18T04:31:04.206Z,0
2018-10-18T04:32:12.857Z,0
2018-10-18T04:33:21.514Z,0
2018-10-18T04:34:30.427Z,0
2018-10-18T04:35:39.351Z,0
2018-10-18T04:36:47.994Z,0
2018-10-18T04:37:56.639Z,0
2018-10-18T04:39:05.280Z,0
2018-10-18T04:40:13.930Z,0
2018-10-18T04:41:22.846Z,0
2018-10-18T04:42:31.495Z,0
2018-10-18T04:43:40.392Z,0
2018-10-18T04:44:49.298Z,0
2018-10-18T04:45:57.941Z,0
2018-10-18T04:47:06.960Z,0
2018-10-18T04:48:15.706Z,0
2018-10-18T04:49:24.173Z,0
2018-10-18T04:50:33.079Z,0
2018-10-18T04:51:41.721Z,0
2018-10-18T04:52:50.369Z,0
2018-10-18T04:53:59.273Z,0
2018-10-18T04:55:08.050Z,0
2018-10-18T04:56:17.253Z,0
2018-10-18T04:57:26.174Z,0
2018-10-18T04:58:35.076Z,0
2018-10-18T04:59:43.726Z,0
2018-10-18T05:00:52.396Z,0
2018-10-18T05:02:01.012Z,0
2018-10-18T05:03:09.655Z,0
2018-10-18T05:04:18.297Z,0
2018-10-18T05:05:27.209Z,0
2018-10-18T05:06:35.852Z,0
2018-10-18T05:07:44.761Z,0
2018-10-18T05:08:53.407Z,0
2018-10-18T05:10:02.052Z,0
2018-10-18T05:11:10.747Z,0
2018-10-18T05:12:19.343Z,0
2018-10-18T05:13:27.983Z,0
2018-10-18T05:14:36.628Z,0
2018-10-18T05:15:45.262Z,0
2018-10-18T05:16:53.916Z,0
2018-10-18T05:18:02.555Z,0
2018-10-18T05:19:11.268Z,0
2018-10-18T05:20:20.255Z,0
2018-10-18T05:21:28.900Z,0
2018-10-18T05:22:37.758Z,0
2018-10-18T05:23:46.768Z,0
2018-10-18T05:24:55.880Z,0
2018-10-18T05:26:04.517Z,0
2018-10-18T05:27:13.430Z,0
2018-10-18T05:28:22.135Z,0
2018-10-18T05:29:30.793Z,0
2018-10-18T05:30:39.736Z,0
2018-10-18T05:31:48.749Z,0
2018-10-18T05:32:57.203Z,0
2018-10-18T05:34:05.855Z,0
2018-10-18T05:35:14.491Z,0
2018-10-18T05:36:23.136Z,0
2018-10-18T05:37:31.792Z,0
2018-10-18T05:38:40.762Z,0
2018-10-18T05:39:49.410Z,0
2018-10-18T05:40:58.049Z,0
2018-10-18T05:42:06.691Z,0
2018-10-18T05:43:15.418Z,0
2018-10-18T05:44:23.986Z,0
2018-10-18T05:45:32.625Z,0
2018-10-18T05:46:41.333Z,0
2018-10-18T05:47:50.171Z,0
2018-10-18T05:48:59.168Z,0
2018-10-18T05:50:08.133Z,0
2018-10-18T05:51:16.781Z,0
2018-10-18T05:52:25.413Z,0
2018-10-18T05:53:34.190Z,0
2018-10-18T05:54:42.972Z,0
2018-10-18T05:55:51.627Z,0
2018-10-18T05:57:00.258Z,5
2018-10-18T05:58:08.902Z,5
2018-10-18T05:59:17.544Z,5
2018-10-18T06:00:26.325Z,5
2018-10-18T06:01:34.835Z,5
2018-10-18T06:02:43.729Z,5
2018-10-18T06:03:52.377Z,5
2018-10-18T06:05:01.016Z,5
2018-10-18T06:06:09.668Z,10
2018-10-18T06:07:18.432Z,10
2018-10-18T06:08:26.949Z,10
2018-10-18T06:09:35.904Z,10
2018-10-18T06:10:44.554Z,10
2018-10-18T06:11:53.191Z,15
2018-10-18T06:13:02.155Z,15
2018-10-18T06:14:11.021Z,15
2018-10-18T06:15:19.667Z,15
2018-10-18T06:16:28.569Z,20
2018-10-18T06:17:37.209Z,20
2018-10-18T06:18:45.847Z,20
2018-10-18T06:19:54.487Z,20
2018-10-18T06:21:03.144Z,25
2018-10-18T06:22:11.781Z,25
2018-10-18T06:23:20.488Z,25
2018-10-18T06:24:29.062Z,25
2018-10-18T06:25:37.709Z,25
2018-10-18T06:26:46.619Z,25
2018-10-18T06:27:55.264Z,25
2018-10-18T06:29:03.912Z,25
2018-10-18T06:30:12.552Z,25
2018-10-18T06:31:21.195Z,25
2018-10-18T06:32:29.839Z,25
2018-10-18T06:33:38.476Z,30
2018-10-18T06:34:47.122Z,35
2018-10-18T06:35:55.761Z,35
2018-10-18T06:37:04.426Z,35
2018-10-18T06:38:13.318Z,35
2018-10-18T06:39:22.084Z,35
2018-10-18T06:40:30.604Z,35
2018-10-18T06:41:39.249Z,35
2018-10-18T06:42:47.895Z,35
2018-10-18T06:43:56.537Z,40
2018-10-18T06:45:05.181Z,40
2018-10-18T06:46:14.092Z,40
2018-10-18T06:47:23.151Z,40
2018-10-18T06:48:31.735Z,40
2018-10-18T06:49:40.477Z,40
2018-10-18T06:50:49.325Z,40
2018-10-18T06:51:57.975Z,45
2018-10-18T06:53:06.613Z,45
2018-10-18T06:54:15.336Z,40
2018-10-18T06:55:23.896Z,40
2018-10-18T06:56:32.536Z,40
2018-10-18T06:57:41.184Z,40
2018-10-18T06:58:49.830Z,40
2018-10-18T06:59:58.608Z,40
2018-10-18T07:01:07.373Z,35
2018-10-18T07:02:16.019Z,35
2018-10-18T07:03:24.664Z,40
2018-10-18T07:04:33.307Z,40
2018-10-18T07:05:42.207Z,45
2018-10-18T07:06:50.856Z,45
2018-10-18T07:07:59.495Z,50
2018-10-18T07:09:08.534Z,50
2018-10-18T07:10:17.168Z,50
2018-10-18T07:11:25.816Z,55
2018-10-18T07:12:34.461Z,55
2018-10-18T07:13:43.105Z,60
2018-10-18T07:14:51.747Z,60
2018-10-18T07:16:00.656Z,60
2018-10-18T07:17:09.566Z,65
2018-10-18T07:18:19.089Z,65
2018-10-18T07:19:27.700Z,65
2018-10-18T07:20:36.336Z,70
2018-10-18T07:21:44.986Z,65
2018-10-18T07:22:53.628Z,65
2018-10-18T07:24:02.587Z,65
2018-10-18T07:25:11.608Z,65
2018-10-18T07:26:20.208Z,70
2018-10-18T07:27:28.848Z,65
2018-10-18T07:28:37.774Z,70
2018-10-18T07:29:46.414Z,65
2018-10-18T07:30:55.369Z,70
2018-10-18T07:32:04.008Z,70
2018-10-18T07:33:12.651Z,75
2018-10-18T07:34:21.565Z,70
2018-10-18T07:35:30.467Z,75
2018-10-18T07:36:39.116Z,75
2018-10-18T07:37:47.750Z,80
2018-10-18T07:38:56.402Z,80
2018-10-18T07:40:05.040Z,80
2018-10-18T07:41:13.783Z,80
2018-10-18T07:42:22.327Z,85
2018-10-18T07:43:31.256Z,75
2018-10-18T07:44:40.169Z,75
2018-10-18T07:45:48.813Z,75
2018-10-18T07:46:57.520Z,70
2018-10-18T07:48:06.151Z,70
2018-10-18T07:49:14.744Z,70
2018-10-18T07:50:23.389Z,75
2018-10-18T07:51:32.037Z,75
2018-10-18T07:52:40.666Z,75
2018-10-18T07:53:49.728Z,80
2018-10-18T07:54:58.368Z,75
2018-10-18T07:56:07.020Z,75
2018-10-18T07:57:15.653Z,85
2018-10-18T07:58:24.299Z,90
2018-10-18T07:59:33.202Z,90
2018-10-18T08:00:41.968Z,90
2018-10-18T08:01:50.497Z,90
2018-10-18T08:02:59.143Z,90
2018-10-18T08:04:07.783Z,90
2018-10-18T08:05:16.440Z,90
2018-10-18T08:06:25.350Z,90
2018-10-18T08:07:33.996Z,90
2018-10-18T08:08:42.645Z,90
2018-10-18T08:09:51.615Z,80
2018-10-18T08:11:00.881Z,80
2018-10-18T08:12:09.724Z,95
2018-10-18T08:13:18.440Z,90
2018-10-18T08:14:27.028Z,95
2018-10-18T08:15:35.653Z,100
2018-10-18T08:16:44.348Z,95
2018-10-18T08:17:53.257Z,95
2018-10-18T08:19:01.998Z,100
2018-10-18T08:20:10.815Z,100
2018-10-18T08:21:19.721Z,95
2018-10-18T08:22:28.406Z,105
2018-10-18T08:23:37.009Z,110
2018-10-18T08:24:45.651Z,110
2018-10-18T08:25:54.293Z,105
2018-10-18T08:27:02.937Z,90
2018-10-18T08:28:11.838Z,80
2018-10-18T08:29:20.490Z,110
2018-10-18T08:30:29.131Z,115
2018-10-18T08:31:38.829Z,115
2018-10-18T08:32:47.374Z,120
2018-10-18T08:33:56.289Z,100
2018-10-18T08:35:04.926Z,95
2018-10-18T08:36:13.576Z,135
2018-10-18T08:37:22.251Z,110
2018-10-18T08:38:30.863Z,105
2018-10-18T08:39:39.770Z,115
2018-10-18T08:40:48.415Z,135
2018-10-18T08:41:57.049Z,135
2018-10-18T08:43:06.013Z,130
2018-10-18T08:44:14.655Z,130
2018-10-18T08:45:23.277Z,115
2018-10-18T08:46:31.924Z,120
2018-10-18T08:47:40.820Z,120
2018-10-18T08:48:49.469Z,130
2018-10-18T08:49:58.578Z,115
2018-10-18T08:51:07.158Z,125
2018-10-18T08:52:16.049Z,140
2018-10-18T08:53:24.696Z,120
2018-10-18T08:54:33.335Z,135
2018-10-18T08:55:42.426Z,115
2018-10-18T08:56:51.056Z,140
2018-10-18T08:57:59.704Z,140
2018-10-18T08:59:08.368Z,135
2018-10-18T09:00:17.003Z,120
2018-10-18T09:01:26.282Z,110
2018-10-18T09:02:34.924Z,150
2018-10-18T09:03:43.684Z,150
2018-10-18T09:04:52.333Z,130
2018-10-18T09:06:00.990Z,140
2018-10-18T09:07:09.676Z,155
2018-10-18T09:08:18.282Z,145
2018-10-18T09:09:26.925Z,135
2018-10-18T09:10:35.835Z,145
2018-10-18T09:11:44.476Z,165
2018-10-18T09:12:53.162Z,180
2018-10-18T09:14:02.178Z,175
2018-10-18T09:15:11.743Z,185
2018-10-18T09:16:20.424Z,165
2018-10-18T09:17:29.073Z,165
2018-10-18T09:18:37.717Z,165
2018-10-18T09:19:46.368Z,185
2018-10-18T09:20:55.279Z,160
2018-10-18T09:22:04.188Z,200
2018-10-18T09:23:13.105Z,150
2018-10-18T09:24:21.747Z,185
2018-10-18T09:25:30.590Z,160
2018-10-18T09:26:39.884Z,190
2018-10-18T09:27:48.538Z,180
2018-10-18T09:28:57.178Z,170
2018-10-18T09:30:06.163Z,125
2018-10-18T09:31:15.003Z,160
2018-10-18T09:32:24.799Z,120
2018-10-18T09:33:33.705Z,135
2018-10-18T09:34:42.357Z,175
2018-10-18T09:35:51.003Z,150
2018-10-18T09:36:59.698Z,155
2018-10-18T09:38:08.605Z,215
2018-10-18T09:39:17.972Z,255
2018-10-18T09:40:26.627Z,265
2018-10-18T09:41:35.265Z,300
2018-10-18T09:42:43.920Z,310
2018-10-18T09:43:52.565Z,260
2018-10-18T09:45:01.747Z,215
2018-10-18T09:46:10.293Z,190
2018-10-18T09:47:18.944Z,165
2018-10-18T09:48:27.590Z,160
2018-10-18T09:49:36.500Z,160
2018-10-18T09:50:45.139Z,155
2018-10-18T09:51:53.788Z,140
2018-10-18T09:53:02.749Z,145
2018-10-18T09:54:11.338Z,150
2018-10-18T09:55:20.557Z,135
2018-10-18T09:56:29.350Z,130
2018-10-18T09:57:38.012Z,135
2018-10-18T09:58:46.646Z,140
2018-10-18T09:59:55.295Z,140
2018-10-18T10:01:03.980Z,145
2018-10-18T10:02:12.586Z,150
2018-10-18T10:03:21.231Z,155
2018-10-18T10:04:29.880Z,150
2018-10-18T10:05:38.791Z,120
2018-10-18T10:06:47.430Z,105
2018-10-18T10:07:56.347Z,105
2018-10-18T10:09:05.248Z,105
2018-10-18T10:10:13.903Z,110
2018-10-18T10:11:22.548Z,110
2018-10-18T10:12:31.460Z,120
2018-10-18T10:13:40.161Z,135
2018-10-18T10:14:48.745Z,150
2018-10-18T10:15:57.395Z,165
2018-10-18T10:17:06.411Z,160
2018-10-18T10:18:15.133Z,145
2018-10-18T10:19:23.641Z,140
2018-10-18T10:20:32.290Z,140
2018-10-18T10:21:40.935Z,135
2018-10-18T10:22:49.595Z,105
2018-10-18T10:23:58.240Z,90
2018-10-18T10:25:07.241Z,85
2018-10-18T10:26:16.424Z,95
2018-10-18T10:27:25.343Z,95
2018-10-18T10:28:33.980Z,95
2018-10-18T10:29:42.630Z,80
2018-10-18T10:30:51.271Z,70
2018-10-18T10:31:59.926Z,65
2018-10-18T10:33:09.318Z,50
2018-10-18T10:34:17.803Z,50
2018-10-18T10:35:26.453Z,70
2018-10-18T10:36:35.353Z,80
2018-10-18T10:37:44.016Z,100
2018-10-18T10:38:52.967Z,115
2018-10-18T10:40:01.926Z,105
2018-10-18T10:41:11.044Z,85
2018-10-18T10:42:19.659Z,90
2018-10-18T10:43:28.192Z,80
2018-10-18T10:44:37.676Z,90
2018-10-18T10:45:46.239Z,110
2018-10-18T10:46:54.844Z,120
2018-10-18T10:48:03.566Z,120
2018-10-18T10:49:13.005Z,135
2018-10-18T10:50:21.550Z,110
2018-10-18T10:51:30.195Z,110
2018-10-18T10:52:38.842Z,130
2018-10-18T10:53:47.488Z,150
2018-10-18T10:54:56.135Z,150
2018-10-18T10:56:05.492Z,140
2018-10-18T10:57:14.212Z,120
2018-10-18T10:58:22.750Z,105
2018-10-18T10:59:31.407Z,110
2018-10-18T11:00:40.040Z,110
2018-10-18T11:01:48.690Z,125
2018-10-18T11:02:57.397Z,145
2018-10-18T11:04:05.985Z,175
2018-10-18T11:05:14.894Z,200
2018-10-18T11:06:23.537Z,215
2018-10-18T11:07:32.179Z,230
2018-10-18T11:08:40.833Z,225
2018-10-18T11:09:49.566Z,210
2018-10-18T11:10:58.123Z,185
2018-10-18T11:12:06.777Z,170
2018-10-18T11:13:15.412Z,155
2018-10-18T11:14:24.063Z,145
2018-10-18T11:15:32.978Z,155
2018-10-18T11:16:41.619Z,200
2018-10-18T11:17:50.259Z,190
2018-10-18T11:18:59.175Z,170
2018-10-18T11:20:08.172Z,130
2018-10-18T11:21:17.316Z,90
2018-10-18T11:22:25.833Z,90
2018-10-18T11:23:34.508Z,110
2018-10-18T11:24:43.564Z,120
2018-10-18T11:25:52.643Z,125
2018-10-18T11:27:01.561Z,135
2018-10-18T11:28:10.177Z,135
2018-10-18T11:29:18.821Z,130
2018-10-18T11:30:27.470Z,125
2018-10-18T11:31:36.118Z,120
2018-10-18T11:32:44.760Z,130
2018-10-18T11:33:53.407Z,125
2018-10-18T11:35:02.329Z,110
2018-10-18T11:36:11.169Z,115
2018-10-18T11:37:19.620Z,115
2018-10-18T11:38:28.266Z,100
2018-10-18T11:39:37.223Z,100
2018-10-18T11:40:45.836Z,105
2018-10-18T11:41:54.486Z,105
2018-10-18T11:43:03.133Z,100
2018-10-18T11:44:12.353Z,95
2018-10-18T11:45:20.815Z,85
2018-10-18T11:46:29.455Z,95
2018-10-18T11:47:38.101Z,105
2018-10-18T11:48:46.744Z,105
2018-10-18T11:49:55.688Z,100
2018-10-18T11:51:04.613Z,125
2018-10-18T11:52:13.696Z,110
2018-10-18T11:53:22.342Z,105
2018-10-18T11:54:30.983Z,120
2018-10-18T11:55:39.638Z,120
2018-10-18T11:56:48.280Z,130
2018-10-18T11:57:56.927Z,170
2018-10-18T11:59:05.929Z,185
2018-10-18T12:00:14.477Z,190
2018-10-18T12:01:23.553Z,180
2018-10-18T12:02:32.140Z,155
2018-10-18T12:03:40.771Z,130
2018-10-18T12:04:49.412Z,135
2018-10-18T12:05:58.063Z,115
2018-10-18T12:07:06.704Z,100
2018-10-18T12:08:15.433Z,90
2018-10-18T12:09:24.004Z,90
2018-10-18T12:10:32.649Z,95
2018-10-18T12:11:41.298Z,105
2018-10-18T12:12:49.935Z,120
2018-10-18T12:13:58.598Z,130
2018-10-18T12:15:07.229Z,145
2018-10-18T12:16:15.878Z,150
2018-10-18T12:17:24.516Z,150
2018-10-18T12:18:33.169Z,160
2018-10-18T12:19:41.818Z,160
2018-10-18T12:20:50.471Z,155
2018-10-18T12:21:59.374Z,140
2018-10-18T12:23:08.469Z,135
2018-10-18T12:24:17.453Z,125
2018-10-18T12:25:26.098Z,110
2018-10-18T12:26:35.017Z,115
2018-10-18T12:27:43.662Z,115
2018-10-18T12:28:52.574Z,115
2018-10-18T12:30:01.218Z,120
2018-10-18T12:31:10.129Z,135
2018-10-18T12:32:19.151Z,145
2018-10-18T12:33:27.797Z,155
2018-10-18T12:34:36.446Z,165
2018-10-18T12:35:45.412Z,180
2018-10-18T12:36:54.324Z,185
2018-10-18T12:38:03.414Z,170
2018-10-18T12:39:12.699Z,140
2018-10-18T12:40:21.817Z,100
2018-10-18T12:41:30.917Z,65
2018-10-18T12:42:39.679Z,55
2018-10-18T12:43:48.321Z,60
2018-10-18T12:44:56.972Z,75
2018-10-18T12:46:05.628Z,90
2018-10-18T12:47:14.269Z,100
2018-10-18T12:48:23.094Z,90
2018-10-18T12:49:31.552Z,90
2018-10-18T12:50:40.202Z,90
2018-10-18T12:51:48.845Z,125
2018-10-18T12:52:57.493Z,145
2018-10-18T12:54:06.557Z,185
2018-10-18T12:55:15.385Z,180
2018-10-18T12:56:24.038Z,175
2018-10-18T12:57:32.949Z,165
2018-10-18T12:58:41.596Z,170
2018-10-18T12:59:50.240Z,175
2018-10-18T13:00:58.885Z,170
2018-10-18T13:02:07.572Z,140
2018-10-18T13:03:16.446Z,125
2018-10-18T13:04:25.084Z,120
2018-10-18T13:05:33.730Z,125
2018-10-18T13:06:42.371Z,95
2018-10-18T13:07:51.026Z,100
2018-10-18T13:08:59.663Z,90
2018-10-18T13:10:08.584Z,95
2018-10-18T13:11:17.225Z,90
2018-10-18T13:12:26.292Z,95
2018-10-18T13:13:35.642Z,110
2018-10-18T13:14:44.289Z,110
2018-10-18T13:15:52.930Z,100
2018-10-18T13:17:01.854Z,80
2018-10-18T13:18:10.572Z,70
2018-10-18T13:19:19.136Z,75
2018-10-18T13:20:27.785Z,80
2018-10-18T13:21:36.425Z,80
2018-10-18T13:22:45.342Z,80
2018-10-18T13:23:53.987Z,70
2018-10-18T13:25:02.640Z,75
2018-10-18T13:26:11.297Z,75
2018-10-18T13:27:19.925Z,70
2018-10-18T13:28:28.567Z,65
2018-10-18T13:29:37.479Z,65
2018-10-18T13:30:46.116Z,70
2018-10-18T13:31:54.774Z,80
2018-10-18T13:33:03.410Z,85
2018-10-18T13:34:13.011Z,85
2018-10-18T13:35:22.010Z,85
2018-10-18T13:36:30.658Z,80
2018-10-18T13:37:39.573Z,85
2018-10-18T13:38:48.220Z,100
2018-10-18T13:39:56.867Z,90
2018-10-18T13:41:05.501Z,95
2018-10-18T13:42:14.308Z,95
2018-10-18T13:43:22.787Z,95
2018-10-18T13:44:31.444Z,95
2018-10-18T13:45:40.080Z,95
2018-10-18T13:46:48.730Z,90
2018-10-18T13:47:57.381Z,85
2018-10-18T13:49:06.024Z,85
2018-10-18T13:50:14.711Z,90
2018-10-18T13:51:23.307Z,95
2018-10-18T13:52:31.950Z,95
2018-10-18T13:53:40.601Z,85
2018-10-18T13:54:49.244Z,85
2018-10-18T13:55:57.903Z,80
2018-10-18T13:57:06.531Z,70
2018-10-18T13:58:15.172Z,80
2018-10-18T13:59:24.037Z,85
2018-10-18T14:00:32.468Z,70
2018-10-18T14:01:41.117Z,70
2018-10-18T14:02:49.756Z,65
2018-10-18T14:03:58.410Z,80
2018-10-18T14:05:07.170Z,55
2018-10-18T14:06:15.710Z,60
2018-10-18T14:07:24.896Z,85
2018-10-18T14:08:34.203Z,90
2018-10-18T14:09:42.801Z,95
2018-10-18T14:10:51.774Z,95
2018-10-18T14:12:00.363Z,85
2018-10-18T14:13:09.011Z,85
2018-10-18T14:14:18.220Z,90
2018-10-18T14:15:26.712Z,90
2018-10-18T14:16:35.358Z,95
2018-10-18T14:17:45.285Z,100
2018-10-18T14:18:53.819Z,100
2018-10-18T14:20:02.544Z,95
2018-10-18T14:21:11.112Z,90
2018-10-18T14:22:19.748Z,85
2018-10-18T14:23:28.657Z,80
2018-10-18T14:24:37.819Z,75
2018-10-18T14:25:46.468Z,75
2018-10-18T14:26:55.107Z,75
2018-10-18T14:28:03.756Z,75
2018-10-18T14:29:12.873Z,75
2018-10-18T14:30:22.307Z,75
2018-10-18T14:31:30.832Z,75
2018-10-18T14:32:39.476Z,75
2018-10-18T14:33:48.118Z,75
2018-10-18T14:34:56.824Z,80
2018-10-18T14:36:05.415Z,80
2018-10-18T14:37:14.318Z,80
2018-10-18T14:38:23.268Z,80
2018-10-18T14:39:31.612Z,75
2018-10-18T14:40:40.520Z,75
2018-10-18T14:41:49.169Z,75
2018-10-18T14:42:57.810Z,75
2018-10-18T14:44:07.752Z,75
2018-10-18T14:45:16.671Z,70
2018-10-18T14:46:25.335Z,60
2018-10-18T14:47:34.037Z,50
2018-10-18T14:48:42.622Z,45
2018-10-18T14:49:51.287Z,40
2018-10-18T14:50:59.920Z,30
2018-10-18T14:52:09.017Z,20
2018-10-18T14:53:17.574Z,25
2018-10-18T14:54:26.193Z,25
2018-10-18T14:55:34.837Z,25
2018-10-18T14:56:43.482Z,20
2018-10-18T14:57:52.131Z,25
2018-10-18T14:59:00.797Z,35
2018-10-18T15:00:09.953Z,35
2018-10-18T15:01:18.593Z,40
2018-10-18T15:02:27.246Z,40
2018-10-18T15:03:35.880Z,45
2018-10-18T15:04:44.940Z,45
2018-10-18T15:05:54.113Z,45
2018-10-18T15:07:02.767Z,45
2018-10-18T15:08:11.478Z,45
2018-10-18T15:09:20.050Z,50
2018-10-18T15:10:28.954Z,50
2018-10-18T15:11:37.597Z,55
2018-10-18T15:12:46.344Z,55
2018-10-18T15:13:54.904Z,50
2018-10-18T15:15:03.808Z,50
2018-10-18T15:16:12.443Z,55
2018-10-18T15:17:21.099Z,55
2018-10-18T15:18:29.751Z,55
2018-10-18T15:19:38.938Z,60
2018-10-18T15:20:47.838Z,55
2018-10-18T15:21:56.490Z,55
2018-10-18T15:23:05.145Z,50
2018-10-18T15:24:13.781Z,50
2018-10-18T15:25:22.556Z,50
2018-10-18T15:26:31.811Z,55
2018-10-18T15:27:40.990Z,55
2018-10-18T15:28:49.738Z,55
2018-10-18T15:29:58.380Z,50
2018-10-18T15:31:07.025Z,50
2018-10-18T15:32:15.732Z,50
2018-10-18T15:33:24.305Z,45
2018-10-18T15:34:32.957Z,45
2018-10-18T15:35:41.591Z,45
2018-10-18T15:36:50.240Z,45
2018-10-18T15:37:58.945Z,40
2018-10-18T15:39:07.713Z,40
2018-10-18T15:40:16.175Z,40
2018-10-18T15:41:25.224Z,35
2018-10-18T15:42:33.865Z,35
2018-10-18T15:43:42.517Z,35
2018-10-18T15:44:51.167Z,35
2018-10-18T15:45:59.804Z,30
2018-10-18T15:47:08.551Z,30
2018-10-18T15:48:17.095Z,25
2018-10-18T15:49:25.744Z,25
2018-10-18T15:50:34.383Z,20
2018-10-18T15:51:43.032Z,20
2018-10-18T15:52:51.950Z,15
2018-10-18T15:54:00.586Z,15
2018-10-18T15:55:09.224Z,15
2018-10-18T15:56:17.871Z,15
2018-10-18T15:57:26.517Z,10
2018-10-18T15:58:35.418Z,10
2018-10-18T15:59:44.330Z,10
2018-10-18T16:00:53.501Z,10
2018-10-18T16:02:02.155Z,10
2018-10-18T16:03:10.931Z,10
2018-10-18T16:04:19.913Z,10
2018-10-18T16:05:28.555Z,5
2018-10-18T16:06:37.196Z,5
2018-10-18T16:07:45.898Z,5
2018-10-18T16:08:54.911Z,5
2018-10-18T16:10:03.556Z,5
2018-10-18T16:11:12.318Z,5
2018-10-18T16:12:20.845Z,5
2018-10-18T16:13:29.753Z,5
2018-10-18T16:14:38.396Z,5
2018-10-18T16:15:47.337Z,5
2018-10-18T16:16:55.996Z,5
2018-10-18T16:18:05.131Z,5
2018-10-18T16:19:13.779Z,0
2018-10-18T16:20:22.949Z,0
2018-10-18T16:21:31.859Z,0
2018-10-18T16:22:40.510Z,0
2018-10-18T16:23:49.151Z,0
2018-10-18T16:24:57.803Z,0